createdAt,value
2022-09-13T00:02:22.331Z,24.75
2022-09-13T00:04:49.409Z,24.73
2022-09-13T00:07:16.651Z,24.72
2022-09-13T00:09:43.735Z,24.71
2022-09-13T00:12:10.880Z,24.70
2022-09-13T00:14:38.198Z,24.68
2022-09-13T00:17:05.289Z,24.67
2022-09-13T00:19:32.833Z,24.68
2022-09-13T00:22:00.116Z,24.68
2022-09-13T00:24:27.346Z,24.68
2022-09-13T00:26:54.413Z,24.65
2022-09-13T00:29:21.765Z,24.62
2022-09-13T00:31:49.370Z,24.61
2022-09-13T00:34:16.810Z,24.60
2022-09-13T00:36:44.278Z,24.60
2022-09-13T00:39:12.534Z,24.56
2022-09-13T00:41:39.851Z,24.52
2022-09-13T00:45:05.033Z,24.49
2022-09-13T00:48:10.322Z,24.45
2022-09-13T00:50:50.468Z,24.45
2022-09-13T00:53:30.389Z,24.44
2022-09-13T00:56:12.118Z,24.41
2022-09-13T00:59:10.467Z,24.39
2022-09-13T01:01:43.934Z,24.36
2022-09-13T01:04:12.951Z,24.37
2022-09-13T01:06:41.450Z,24.40
2022-09-13T01:09:11.433Z,24.45
2022-09-13T01:11:47.397Z,24.49
2022-09-13T01:14:16.894Z,24.50
2022-09-13T01:16:47.767Z,24.49
2022-09-13T01:19:15.569Z,24.45
2022-09-13T01:22:16.272Z,24.41
2022-09-13T01:25:08.060Z,24.38
2022-09-13T01:27:54.098Z,24.36
2022-09-13T01:30:24.270Z,24.32
2022-09-13T01:33:13.941Z,24.30
2022-09-13T01:36:10.564Z,24.30
2022-09-13T01:38:54.438Z,24.28
2022-09-13T01:42:01.364Z,24.27
2022-09-13T01:44:43.558Z,24.29
2022-09-13T01:47:28.081Z,24.28
2022-09-13T01:50:10.128Z,24.26
2022-09-13T01:53:00.933Z,24.24
2022-09-13T01:55:37.104Z,24.23
2022-09-13T01:58:22.448Z,24.20
2022-09-13T02:01:08.997Z,24.19
2022-09-13T02:03:43.794Z,24.18
2022-09-13T02:06:20.168Z,24.16
2022-09-13T02:09:01.161Z,24.13
2022-09-13T02:11:29.141Z,24.10
2022-09-13T02:14:07.573Z,24.08
2022-09-13T02:16:39.812Z,24.07
2022-09-13T02:19:20.542Z,24.06
2022-09-13T02:21:58.030Z,24.08
2022-09-13T02:24:31.145Z,24.06
2022-09-13T02:27:03.008Z,24.07
2022-09-13T02:29:34.026Z,24.06
2022-09-13T02:32:23.270Z,24.04
2022-09-13T02:35:04.532Z,24.04
2022-09-13T02:37:34.446Z,24.01
2022-09-13T02:40:22.292Z,23.98
2022-09-13T02:43:16.369Z,23.93
2022-09-13T02:45:54.892Z,23.89
2022-09-13T02:49:10.875Z,23.88
2022-09-13T02:51:55.251Z,23.95
2022-09-13T02:54:28.835Z,23.92
2022-09-13T02:57:21.174Z,23.79
2022-09-13T02:59:49.835Z,23.78
2022-09-13T03:02:24.749Z,23.73
2022-09-13T03:04:52.114Z,23.71
2022-09-13T03:07:19.221Z,23.71
2022-09-13T03:09:57.505Z,23.70
2022-09-13T03:12:36.598Z,23.70
2022-09-13T03:15:35.685Z,23.70
2022-09-13T03:18:31.230Z,23.70
2022-09-13T03:21:01.111Z,23.67
2022-09-13T03:23:54.885Z,23.62
2022-09-13T03:26:34.021Z,23.59
2022-09-13T03:29:07.629Z,23.54
2022-09-13T03:32:16.674Z,23.58
2022-09-13T03:35:08.194Z,23.59
2022-09-13T03:37:48.666Z,23.56
2022-09-13T03:40:35.283Z,23.52
2022-09-13T03:43:08.588Z,23.47
2022-09-13T03:45:47.757Z,23.45
2022-09-13T03:48:16.748Z,23.44
2022-09-13T03:50:46.746Z,23.45
2022-09-13T03:53:19.556Z,23.46
2022-09-13T03:55:48.121Z,23.49
2022-09-13T03:58:19.377Z,23.52
2022-09-13T04:00:47.678Z,23.55
2022-09-13T04:03:15.840Z,23.58
2022-09-13T04:05:43.238Z,23.57
2022-09-13T04:08:10.388Z,23.56
2022-09-13T04:10:38.195Z,23.55
2022-09-13T04:13:05.522Z,23.56
2022-09-13T04:15:32.860Z,23.53
2022-09-13T04:18:01.204Z,23.53
2022-09-13T04:20:30.009Z,23.51
2022-09-13T04:22:57.838Z,23.49
2022-09-13T04:25:25.224Z,23.46
2022-09-13T04:27:56.492Z,23.45
2022-09-13T04:30:23.883Z,23.42
2022-09-13T04:32:50.930Z,23.35
2022-09-13T04:35:19.775Z,23.29
2022-09-13T04:37:47.054Z,23.22
2022-09-13T04:40:14.779Z,23.12
2022-09-13T04:42:44.090Z,23.13
2022-09-13T04:45:11.518Z,23.26
2022-09-13T04:47:38.712Z,23.52
2022-09-13T04:50:07.356Z,23.79
2022-09-13T04:52:34.482Z,24.18
2022-09-13T04:55:02.278Z,24.63
2022-09-13T04:57:29.874Z,25.12
2022-09-13T04:59:57.096Z,25.56
2022-09-13T05:02:24.617Z,25.98
2022-09-13T05:04:51.944Z,26.55
2022-09-13T05:07:18.993Z,27.12
2022-09-13T05:09:46.233Z,27.80
2022-09-13T05:12:13.490Z,28.50
2022-09-13T05:14:40.742Z,29.02
2022-09-13T05:17:07.897Z,29.48
2022-09-13T05:19:35.408Z,29.73
2022-09-13T05:22:03.131Z,30.24
2022-09-13T05:24:30.249Z,30.60
2022-09-13T05:26:57.452Z,31.11
2022-09-13T05:29:24.550Z,31.70
2022-09-13T05:31:51.805Z,32.32
2022-09-13T05:34:20.068Z,32.80
2022-09-13T05:36:53.206Z,33.15
2022-09-13T05:39:43.608Z,33.33
2022-09-13T05:42:09.678Z,33.90
2022-09-13T05:44:36.896Z,33.98
2022-09-13T05:47:04.104Z,33.90
2022-09-13T05:49:31.382Z,33.58
2022-09-13T05:51:58.425Z,34.35
2022-09-13T05:54:25.665Z,34.73
2022-09-13T05:56:54.482Z,34.94
2022-09-13T05:59:21.538Z,35.34
2022-09-13T06:01:48.997Z,35.71
2022-09-13T06:04:16.203Z,35.85
2022-09-13T06:06:43.496Z,35.03
2022-09-13T06:09:12.473Z,35.46
2022-09-13T06:11:39.863Z,35.64
2022-09-13T06:14:07.035Z,34.62
2022-09-13T06:16:34.542Z,33.84
2022-09-13T06:19:02.288Z,33.90
2022-09-13T06:21:29.654Z,34.04
2022-09-13T06:23:57.043Z,34.09
2022-09-13T06:26:28.618Z,34.24
2022-09-13T06:28:58.377Z,34.17
2022-09-13T06:31:28.483Z,34.86
2022-09-13T06:33:59.001Z,35.40
2022-09-13T06:36:26.620Z,35.69
2022-09-13T06:38:54.184Z,35.94
2022-09-13T06:41:23.705Z,35.89
2022-09-13T06:43:56.208Z,35.73
2022-09-13T06:46:25.377Z,35.67
2022-09-13T06:48:52.990Z,34.00
2022-09-13T06:51:25.038Z,35.00
2022-09-13T06:53:56.860Z,35.34
2022-09-13T06:56:29.269Z,35.40
2022-09-13T06:58:59.395Z,33.59
2022-09-13T07:01:29.540Z,32.85
2022-09-13T07:04:02.932Z,33.03
2022-09-13T07:06:35.765Z,33.43
2022-09-13T07:09:05.654Z,33.45
2022-09-13T07:11:35.883Z,32.70
2022-09-13T07:14:03.471Z,32.61
2022-09-13T07:16:32.165Z,33.03
2022-09-13T07:19:01.713Z,33.17
2022-09-13T07:21:29.648Z,33.32
2022-09-13T07:23:57.445Z,32.04
2022-09-13T07:26:27.714Z,32.07
2022-09-13T07:28:58.002Z,31.81
2022-09-13T07:31:33.589Z,31.88
2022-09-13T07:34:03.920Z,31.46
2022-09-13T07:36:33.698Z,31.49
2022-09-13T07:39:01.953Z,31.73
2022-09-13T07:41:31.114Z,32.00
2022-09-13T07:43:58.629Z,31.96
2022-09-13T07:46:27.646Z,31.71
2022-09-13T07:48:57.129Z,32.22
2022-09-13T07:51:35.530Z,32.61
2022-09-13T07:54:10.011Z,33.10
2022-09-13T07:56:39.068Z,33.54
2022-09-13T07:59:07.959Z,33.03
2022-09-13T08:01:37.672Z,32.53
2022-09-13T08:04:07.716Z,31.47
2022-09-13T08:06:36.701Z,31.11
2022-09-13T08:09:05.902Z,31.03
2022-09-13T08:58:41.632Z,29.52
2022-09-13T09:01:26.189Z,29.32
2022-09-13T09:03:59.018Z,29.40
2022-09-13T09:06:26.592Z,29.60
2022-09-13T09:09:00.179Z,29.21
2022-09-13T09:11:35.137Z,29.39
2022-09-13T09:14:25.431Z,29.32
2022-09-13T09:16:59.242Z,29.28
2022-09-13T09:19:40.990Z,29.27
2022-09-13T09:22:22.240Z,29.04
2022-09-13T09:24:54.486Z,29.20
2022-09-13T09:27:23.578Z,28.80
2022-09-13T09:29:58.474Z,28.94
2022-09-13T09:32:50.878Z,29.03
2022-09-13T09:35:38.124Z,28.92
2022-09-13T09:38:39.981Z,28.98
2022-09-13T09:41:39.414Z,28.89
2022-09-13T09:44:16.741Z,28.94
2022-09-13T09:46:47.751Z,28.91
2022-09-13T09:49:39.417Z,28.96
2022-09-13T09:52:11.544Z,28.85
2022-09-13T09:54:41.834Z,28.98
2022-09-13T09:57:09.091Z,28.81
2022-09-13T09:59:37.334Z,28.90
2022-09-13T10:02:31.678Z,29.03
2022-09-13T10:05:02.176Z,28.96
2022-09-13T10:07:36.016Z,28.96
2022-09-13T10:10:08.766Z,28.90
2022-09-13T10:12:37.146Z,29.03
2022-09-13T10:15:17.872Z,29.05
2022-09-13T10:18:02.294Z,28.96
2022-09-13T10:20:31.431Z,28.94
2022-09-13T10:23:18.629Z,28.87
2022-09-13T10:26:07.186Z,28.74
2022-09-13T10:28:41.883Z,28.71
2022-09-13T10:31:17.407Z,28.83
2022-09-13T10:33:50.866Z,28.72
2022-09-13T10:36:50.680Z,28.80
2022-09-13T10:39:18.997Z,28.69
2022-09-13T10:42:06.054Z,28.73
2022-09-13T10:44:51.730Z,28.69
2022-09-13T10:47:48.050Z,28.75
2022-09-13T10:50:27.568Z,28.78
2022-09-13T10:52:59.879Z,28.83
2022-09-13T10:55:33.570Z,28.85
2022-09-13T10:58:03.426Z,28.83
2022-09-13T11:00:48.990Z,28.76
2022-09-13T11:03:45.934Z,28.55
2022-09-13T11:06:30.866Z,28.48
2022-09-13T11:09:16.417Z,28.63
2022-09-13T11:11:59.829Z,28.37
2022-09-13T11:14:42.222Z,28.25
2022-09-13T11:17:42.321Z,28.10
2022-09-13T11:20:46.885Z,28.22
2022-09-13T11:23:19.913Z,28.51
2022-09-13T11:26:05.032Z,28.71
2022-09-13T11:28:53.720Z,28.85
2022-09-13T11:31:45.664Z,28.95
2022-09-13T11:34:29.168Z,28.74
2022-09-13T11:37:05.221Z,28.64
2022-09-13T11:39:40.460Z,28.54
2022-09-13T11:42:32.141Z,28.70
2022-09-13T11:45:18.198Z,28.79
2022-09-13T11:48:16.244Z,28.78
2022-09-13T11:51:18.721Z,28.68
2022-09-13T11:54:03.730Z,28.72
2022-09-13T11:56:39.379Z,29.06
2022-09-13T11:59:16.101Z,29.13
2022-09-13T12:01:48.338Z,29.02
2022-09-13T12:04:40.229Z,29.11
2022-09-13T12:07:16.356Z,29.19
2022-09-13T12:09:58.617Z,28.95
2022-09-13T12:12:31.666Z,28.96
2022-09-13T12:15:08.199Z,29.05
2022-09-13T12:17:46.392Z,28.91
2022-09-13T12:20:30.881Z,28.75
2022-09-13T12:23:02.125Z,28.80
2022-09-13T12:25:39.432Z,29.08
2022-09-13T12:28:27.688Z,28.84
2022-09-13T12:31:26.137Z,28.74
2022-09-13T12:33:54.688Z,28.57
2022-09-13T12:36:56.649Z,28.65
2022-09-13T12:39:53.495Z,28.80
2022-09-13T12:42:50.425Z,28.89
2022-09-13T12:45:26.784Z,29.08
2022-09-13T12:48:14.784Z,29.15
2022-09-13T12:51:12.585Z,29.08
2022-09-13T12:54:12.770Z,29.02
2022-09-13T12:56:45.638Z,29.03
2022-09-13T12:59:47.789Z,28.93
2022-09-13T13:02:33.274Z,28.87
2022-09-13T13:05:06.225Z,28.81
2022-09-13T13:07:38.374Z,28.69
2022-09-13T13:10:06.977Z,28.62
2022-09-13T13:12:39.021Z,28.58
2022-09-13T13:15:26.227Z,28.65
2022-09-13T13:17:58.275Z,28.67
2022-09-13T13:20:43.058Z,28.65
2022-09-13T13:23:19.363Z,28.62
2022-09-13T13:26:03.081Z,28.43
2022-09-13T13:28:48.050Z,28.38
2022-09-13T13:31:30.234Z,28.45
2022-09-13T13:34:23.438Z,28.43
2022-09-13T13:36:53.619Z,28.37
2022-09-13T13:39:23.573Z,28.45
2022-09-13T13:41:58.980Z,28.46
2022-09-13T13:44:26.245Z,28.35
2022-09-13T13:46:55.538Z,28.33
2022-09-13T13:49:32.079Z,28.39
2022-09-13T13:52:19.076Z,28.40
2022-09-13T13:54:46.142Z,28.37
2022-09-13T13:57:52.678Z,28.36
2022-09-13T14:00:27.005Z,28.42
2022-09-13T14:02:57.114Z,28.39
2022-09-13T14:05:47.290Z,28.38
2022-09-13T14:08:33.245Z,28.34
2022-09-13T14:11:30.834Z,28.31
2022-09-13T14:14:12.771Z,28.25
2022-09-13T14:16:45.504Z,28.15
2022-09-13T14:19:12.608Z,28.06
2022-09-13T14:21:39.895Z,28.00
2022-09-13T14:24:20.273Z,28.03
2022-09-13T14:26:49.836Z,27.86
2022-09-13T14:29:23.455Z,27.77
2022-09-13T14:31:52.987Z,27.77
2022-09-13T14:34:32.343Z,27.74
2022-09-13T14:37:03.586Z,27.77
2022-09-13T14:39:31.828Z,27.76
2022-09-13T14:42:00.657Z,27.79
2022-09-13T14:44:29.308Z,27.73
2022-09-13T14:47:18.676Z,27.64
2022-09-13T14:49:55.115Z,27.65
2022-09-13T14:52:32.267Z,27.72
2022-09-13T14:55:15.783Z,27.71
2022-09-13T14:57:50.362Z,27.78
2022-09-13T15:00:20.568Z,27.74
2022-09-13T15:02:54.648Z,27.69
2022-09-13T15:05:25.709Z,27.59
2022-09-13T15:07:53.097Z,27.56
2022-09-13T15:10:32.448Z,27.55
2022-09-13T15:13:06.005Z,27.60
2022-09-13T15:15:41.859Z,27.50
2022-09-13T15:18:18.055Z,27.46
2022-09-13T15:20:50.622Z,27.45
2022-09-13T15:23:34.063Z,27.45
2022-09-13T15:26:05.729Z,27.43
2022-09-13T15:28:41.718Z,27.44
2022-09-13T15:31:09.405Z,27.31
2022-09-13T15:33:36.830Z,27.25
2022-09-13T15:36:19.748Z,27.27
2022-09-13T15:39:02.747Z,27.20
2022-09-13T15:41:32.953Z,27.19
2022-09-13T15:44:02.148Z,27.19
2022-09-13T15:46:30.179Z,27.13
2022-09-13T15:48:59.858Z,27.15
2022-09-13T15:51:27.695Z,27.12
2022-09-13T15:53:56.825Z,27.10
2022-09-13T15:56:46.813Z,27.03
2022-09-13T15:59:15.980Z,26.98
2022-09-13T16:01:45.074Z,26.96
2022-09-13T16:04:12.619Z,26.92
2022-09-13T16:06:40.422Z,26.93
2022-09-13T16:09:20.161Z,26.94
2022-09-13T16:11:48.492Z,26.94
2022-09-13T16:14:16.142Z,26.86
2022-09-13T16:16:44.135Z,26.84
2022-09-13T16:19:30.199Z,26.76
2022-09-13T16:21:57.366Z,26.72
2022-09-13T16:24:24.656Z,26.71
2022-09-13T16:26:52.111Z,26.68
2022-09-13T16:29:19.333Z,26.67
2022-09-13T16:31:46.427Z,26.64
2022-09-13T16:34:13.667Z,26.59
2022-09-13T16:36:40.826Z,26.55
2022-09-13T16:39:08.115Z,26.54
2022-09-13T16:41:35.456Z,26.49
2022-09-13T16:44:05.245Z,26.48
2022-09-13T16:46:33.331Z,26.51
2022-09-13T16:49:00.475Z,26.49
2022-09-13T16:51:27.750Z,26.50
2022-09-13T16:53:54.889Z,26.47
2022-09-13T16:56:24.672Z,26.45
2022-09-13T16:58:52.896Z,26.43
2022-09-13T17:01:23.695Z,26.42
2022-09-13T17:03:54.711Z,26.40
2022-09-13T17:06:23.903Z,26.36
2022-09-13T17:08:57.437Z,26.36
2022-09-13T17:11:27.170Z,26.36
2022-09-13T17:13:55.512Z,26.36
2022-09-13T17:16:24.645Z,26.37
2022-09-13T17:18:52.452Z,26.39
2022-09-13T17:21:20.041Z,26.36
2022-09-13T17:23:47.351Z,26.36
2022-09-13T17:26:14.636Z,26.38
2022-09-13T17:28:41.792Z,26.41
2022-09-13T17:31:09.021Z,26.42
2022-09-13T17:33:36.241Z,26.47
2022-09-13T17:36:09.262Z,26.47
2022-09-13T17:38:37.772Z,26.46
2022-09-13T17:41:10.966Z,26.49
2022-09-13T17:43:39.466Z,26.51
2022-09-13T17:46:08.892Z,26.52
2022-09-13T17:48:36.169Z,26.53
2022-09-13T17:51:24.008Z,26.53
2022-09-13T17:53:56.579Z,26.54
2022-09-13T17:56:29.852Z,26.51
2022-09-13T17:58:58.094Z,26.51
2022-09-13T18:01:45.309Z,26.49
2022-09-13T18:07:29.356Z,26.46
2022-09-13T18:09:56.667Z,26.49
2022-09-13T18:12:23.921Z,26.48
2022-09-13T18:14:51.126Z,26.49
2022-09-13T18:17:18.379Z,26.47
2022-09-13T18:19:47.009Z,26.47
2022-09-13T18:22:14.563Z,26.45
2022-09-13T18:24:42.017Z,26.43
2022-09-13T18:27:09.281Z,26.37
2022-09-13T18:29:36.343Z,26.36
2022-09-13T18:32:03.422Z,26.37
2022-09-13T18:34:30.655Z,26.36
2022-09-13T18:36:57.769Z,26.36
2022-09-13T18:39:25.160Z,26.34
2022-09-13T18:41:52.293Z,26.32
2022-09-13T18:44:19.723Z,26.29
2022-09-13T18:46:47.572Z,26.32
2022-09-13T18:49:15.427Z,26.32
2022-09-13T18:51:44.177Z,26.24
2022-09-13T18:54:14.836Z,26.23
2022-09-13T18:56:42.466Z,26.22
2022-09-13T18:59:10.646Z,26.21
2022-09-13T19:01:41.463Z,26.20
2022-09-13T19:04:14.813Z,26.16
2022-09-13T19:06:50.584Z,26.14
2022-09-13T19:09:20.970Z,26.12
2022-09-13T19:11:50.193Z,26.08
2022-09-13T19:14:27.894Z,26.05
2022-09-13T19:16:57.276Z,26.06
2022-09-13T19:19:24.809Z,26.05
2022-09-13T19:21:51.984Z,26.00
2022-09-13T19:24:20.590Z,25.99
2022-09-13T19:26:51.217Z,25.95
2022-09-13T19:29:21.318Z,25.91
2022-09-13T19:31:49.966Z,25.88
2022-09-13T19:34:19.586Z,25.88
2022-09-13T19:36:47.654Z,25.88
2022-09-13T19:39:15.458Z,25.85
2022-09-13T19:41:42.827Z,25.82
2022-09-13T19:44:12.938Z,25.80
2022-09-13T19:46:42.080Z,25.79
2022-09-13T19:49:13.342Z,25.75
2022-09-13T19:51:41.804Z,25.76
2022-09-13T19:54:12.695Z,25.77
2022-09-13T19:56:42.933Z,25.77
2022-09-13T19:59:15.523Z,25.76
2022-09-13T20:01:45.566Z,25.72
2022-09-13T20:04:16.071Z,25.70
2022-09-13T20:06:48.944Z,25.67
2022-09-13T20:09:18.131Z,25.66
2022-09-13T20:11:45.950Z,25.62
2022-09-13T20:14:15.337Z,25.60
2022-09-13T20:16:43.294Z,25.56
2022-09-13T20:19:39.381Z,25.55
2022-09-13T20:22:06.451Z,25.52
2022-09-13T20:24:33.716Z,25.52
2022-09-13T20:27:00.983Z,25.50
2022-09-13T20:29:28.363Z,25.48
2022-09-13T20:31:55.710Z,25.54
2022-09-13T20:34:22.876Z,25.55
2022-09-13T20:36:50.066Z,25.54
2022-09-13T20:39:17.385Z,25.53
2022-09-13T20:41:45.232Z,25.54
2022-09-13T20:44:13.425Z,25.56
2022-09-13T20:46:44.242Z,25.55
2022-09-13T20:49:12.024Z,25.55
2022-09-13T20:51:39.248Z,25.52
2022-09-13T20:54:06.741Z,25.50
2022-09-13T20:56:34.085Z,25.50
2022-09-13T20:59:02.213Z,25.46
2022-09-13T21:01:31.397Z,25.44
2022-09-13T21:03:59.651Z,25.47
2022-09-13T21:06:29.507Z,25.47
2022-09-13T21:09:00.282Z,25.49
2022-09-13T21:11:30.635Z,25.50
2022-09-13T21:14:00.535Z,25.49
2022-09-13T21:16:30.743Z,25.45
2022-09-13T21:18:58.726Z,25.41
2022-09-13T21:21:30.294Z,25.36
2022-09-13T21:23:58.945Z,25.30
2022-09-13T21:26:27.857Z,25.30
2022-09-13T21:28:57.085Z,25.27
2022-09-13T21:31:26.723Z,25.28
2022-09-13T21:34:08.748Z,25.26
2022-09-13T21:36:36.402Z,25.21
2022-09-13T21:39:05.097Z,25.16
2022-09-13T21:41:32.739Z,25.21
2022-09-13T21:43:59.855Z,25.27
2022-09-13T21:46:29.213Z,25.25
2022-09-13T21:48:59.128Z,25.19
2022-09-13T21:51:30.472Z,25.16
2022-09-13T21:54:09.767Z,25.11
2022-09-13T21:56:41.143Z,25.06
2022-09-13T21:59:14.671Z,25.01
2022-09-13T22:01:44.104Z,24.98
2022-09-13T22:04:17.260Z,24.96
2022-09-13T22:06:46.012Z,24.95
2022-09-13T22:09:14.087Z,25.03
2022-09-13T22:11:44.199Z,25.04
2022-09-13T22:14:13.994Z,25.04
2022-09-13T22:16:43.092Z,25.02
2022-09-13T22:19:17.985Z,24.99
2022-09-13T22:21:55.370Z,24.95
2022-09-13T22:24:24.252Z,24.87
2022-09-13T22:26:53.250Z,24.82
2022-09-13T22:29:21.436Z,24.79
2022-09-13T22:31:50.607Z,24.78
2022-09-13T22:34:20.655Z,24.77
2022-09-13T22:36:48.161Z,24.75
2022-09-13T22:39:17.113Z,24.71
2022-09-13T22:41:45.485Z,24.69
2022-09-13T22:44:12.886Z,24.69
2022-09-13T22:46:43.328Z,24.71
2022-09-13T22:49:15.879Z,24.70
2022-09-13T22:51:46.589Z,24.66
2022-09-13T22:54:15.333Z,24.65
2022-09-13T22:56:43.114Z,24.62
2022-09-13T22:59:16.355Z,24.62
2022-09-13T23:01:44.246Z,24.60
2022-09-13T23:04:11.843Z,24.58
2022-09-13T23:06:40.842Z,24.56
2022-09-13T23:09:08.928Z,24.57
2022-09-13T23:11:38.524Z,24.61
2022-09-13T23:14:12.176Z,24.62
2022-09-13T23:16:49.235Z,24.61
2022-09-13T23:19:17.680Z,24.60
2022-09-13T23:21:45.036Z,24.60
2022-09-13T23:24:15.110Z,24.56
2022-09-13T23:26:43.280Z,24.58
2022-09-13T23:29:15.650Z,24.59
2022-09-13T23:31:43.627Z,24.57
2022-09-13T23:34:11.963Z,24.54
2022-09-13T23:36:41.626Z,24.53
2022-09-13T23:39:13.325Z,24.51
2022-09-13T23:41:40.551Z,24.48
2022-09-13T23:44:07.999Z,24.49
2022-09-13T23:46:35.629Z,24.56
2022-09-13T23:49:02.891Z,24.55
2022-09-13T23:51:30.961Z,24.54
2022-09-13T23:54:00.751Z,24.51
2022-09-13T23:56:30.833Z,24.50
2022-09-13T23:58:59.621Z,24.47
